createdAt,value
2023-02-03T00:01:30.052Z,4.18
2023-02-03T00:03:56.776Z,4.43
2023-02-03T00:06:36.377Z,4.40
2023-02-03T00:12:08.341Z,4.32
2023-02-03T00:14:36.027Z,4.32
2023-02-03T00:17:14.140Z,4.68
2023-02-03T00:19:46.736Z,4.75
2023-02-03T00:22:13.269Z,4.72
2023-02-03T00:24:42.141Z,4.13
2023-02-03T00:27:17.400Z,4.60
2023-02-03T00:29:43.940Z,4.93
2023-02-03T00:32:18.034Z,5.72
2023-02-03T00:34:45.484Z,5.60
2023-02-03T00:37:15.154Z,5.43
2023-02-03T00:39:43.771Z,4.97
2023-02-03T00:42:20.450Z,5.20
2023-02-03T00:44:46.983Z,5.38
2023-02-03T00:47:20.404Z,5.70
2023-02-03T00:49:46.912Z,5.30
2023-02-03T00:52:13.496Z,4.90
2023-02-03T00:54:42.517Z,5.60
2023-02-03T00:57:10.474Z,5.30
2023-02-03T00:59:37.363Z,5.20
2023-02-03T01:02:13.921Z,4.82
2023-02-03T01:04:50.426Z,4.47
2023-02-03T01:07:17.609Z,4.97
2023-02-03T01:09:51.843Z,4.60
2023-02-03T01:12:37.453Z,4.05
2023-02-03T01:15:05.075Z,4.32
2023-02-03T01:17:36.659Z,4.18
2023-02-03T01:20:07.492Z,4.03
2023-02-03T01:22:37.567Z,4.47
2023-02-03T01:25:11.873Z,4.80
2023-02-03T01:27:38.480Z,5.30
2023-02-03T01:30:05.559Z,4.32
2023-02-03T01:32:35.924Z,4.75
2023-02-03T01:35:12.935Z,4.43
2023-02-03T01:37:42.504Z,5.20
2023-02-03T01:40:09.730Z,4.70
2023-02-03T01:42:36.236Z,5.10
2023-02-03T01:45:02.718Z,5.15
2023-02-03T01:47:32.332Z,5.10
2023-02-03T01:50:24.206Z,5.32
2023-02-03T01:53:03.657Z,4.97
2023-02-03T01:55:41.090Z,5.28
2023-02-03T01:58:19.926Z,5.30
2023-02-03T02:00:54.176Z,5.70
2023-02-03T02:03:45.782Z,5.15
2023-02-03T02:06:13.877Z,5.60
2023-02-03T02:08:43.102Z,5.22
2023-02-03T02:11:09.629Z,5.88
2023-02-03T02:13:36.840Z,5.45
2023-02-03T02:16:18.309Z,5.05
2023-02-03T02:19:00.075Z,5.32
2023-02-03T02:21:46.325Z,4.85
2023-02-03T02:24:34.559Z,4.88
2023-02-03T02:27:43.597Z,4.82
2023-02-03T02:30:37.375Z,5.68
2023-02-03T02:33:10.373Z,4.80
2023-02-03T02:35:46.095Z,5.20
2023-02-03T02:38:36.825Z,5.32
2023-02-03T02:41:25.688Z,5.18
2023-02-03T02:44:07.031Z,5.07
2023-02-03T02:46:46.285Z,5.47
2023-02-03T02:49:30.629Z,4.78
2023-02-03T02:52:00.177Z,4.80
2023-02-03T02:54:37.632Z,4.63
2023-02-03T02:57:17.065Z,4.63
2023-02-03T02:59:43.654Z,4.53
2023-02-03T03:02:11.756Z,4.97
2023-02-03T03:04:48.791Z,5.10
2023-02-03T03:07:24.157Z,5.15
2023-02-03T03:10:01.319Z,4.82
2023-02-03T03:12:44.695Z,5.03
2023-02-03T03:15:19.093Z,5.47
2023-02-03T03:17:54.895Z,4.72
2023-02-03T03:20:28.408Z,5.30
2023-02-03T03:23:19.508Z,5.15
2023-02-03T03:25:51.974Z,5.32
2023-02-03T03:28:28.016Z,5.15
2023-02-03T03:30:56.914Z,4.65
2023-02-03T03:33:23.616Z,5.38
2023-02-03T03:36:18.633Z,5.47
2023-02-03T03:39:08.744Z,5.22
2023-02-03T03:41:54.916Z,5.53
2023-02-03T03:44:26.663Z,5.13
2023-02-03T03:47:26.486Z,5.65
2023-02-03T03:50:00.218Z,5.15
2023-02-03T03:52:32.171Z,5.05
2023-02-03T03:55:00.743Z,5.65
2023-02-03T03:57:36.558Z,5.70
2023-02-03T04:00:05.722Z,5.97
2023-02-03T04:02:50.763Z,6.18
2023-02-03T04:05:17.570Z,5.70
2023-02-03T04:07:46.204Z,5.75
2023-02-03T04:10:30.463Z,5.82
2023-02-03T04:13:07.874Z,5.95
2023-02-03T04:15:34.779Z,5.93
2023-02-03T04:18:01.668Z,6.28
2023-02-03T04:20:29.755Z,5.93
2023-02-03T04:22:56.709Z,6.38
2023-02-03T04:25:23.670Z,6.05
2023-02-03T04:27:52.771Z,6.28
2023-02-03T04:30:19.494Z,6.72
2023-02-03T04:32:46.964Z,6.82
2023-02-03T04:35:13.979Z,6.57
2023-02-03T04:37:43.429Z,6.50
2023-02-03T04:40:14.771Z,6.45
2023-02-03T04:42:48.727Z,6.10
2023-02-03T04:45:15.901Z,6.85
2023-02-03T04:47:42.589Z,6.80
2023-02-03T04:50:10.256Z,6.90
2023-02-03T04:52:40.784Z,6.63
2023-02-03T04:55:15.884Z,6.93
2023-02-03T04:57:49.572Z,7.05
2023-02-03T05:00:19.741Z,6.78
2023-02-03T05:02:46.348Z,6.63
2023-02-03T05:05:18.610Z,6.43
2023-02-03T05:07:56.035Z,6.60
2023-02-03T05:10:31.076Z,6.30
2023-02-03T05:13:01.095Z,6.68
2023-02-03T05:15:27.775Z,6.15
2023-02-03T05:18:00.330Z,7.03
2023-02-03T05:20:27.078Z,6.13
2023-02-03T05:23:00.045Z,6.88
2023-02-03T05:25:41.272Z,6.53
2023-02-03T05:28:09.120Z,6.65
2023-02-03T05:30:44.366Z,5.82
2023-02-03T05:33:13.947Z,7.03
2023-02-03T05:35:45.893Z,6.55
2023-02-03T05:38:18.966Z,6.97
2023-02-03T05:40:54.820Z,6.93
2023-02-03T05:43:24.887Z,6.93
2023-02-03T05:45:51.492Z,7.03
2023-02-03T05:48:18.035Z,6.68
2023-02-03T05:50:51.746Z,7.32
2023-02-03T05:53:19.019Z,7.18
2023-02-03T05:55:50.139Z,6.75
2023-02-03T05:58:16.659Z,7.15
2023-02-03T06:00:43.447Z,7.25
2023-02-03T06:03:19.032Z,7.80
2023-02-03T06:05:45.585Z,6.88
2023-02-03T06:08:21.710Z,7.25
2023-02-03T06:10:48.274Z,7.13
2023-02-03T06:13:19.006Z,6.95
2023-02-03T06:15:56.147Z,7.20
2023-02-03T06:18:24.516Z,8.40
2023-02-03T06:21:00.853Z,7.25
2023-02-03T06:23:28.297Z,7.63
2023-02-03T06:26:01.217Z,7.07
2023-02-03T06:28:30.363Z,7.32
2023-02-03T06:30:57.059Z,7.47
2023-02-03T06:33:26.631Z,7.50
2023-02-03T06:35:54.715Z,8.02
2023-02-03T06:38:33.432Z,7.20
2023-02-03T06:44:10.382Z,8.15
2023-02-03T06:49:24.036Z,8.23
2023-02-03T06:51:55.740Z,9.25
2023-02-03T06:54:27.536Z,8.07
2023-02-03T06:57:03.262Z,8.70
2023-02-03T06:59:46.994Z,8.15
2023-02-03T07:02:20.905Z,9.25
2023-02-03T07:05:17.138Z,9.38
2023-02-03T07:07:46.543Z,9.65
2023-02-03T07:10:15.587Z,10.80
2023-02-03T07:12:42.180Z,10.75
2023-02-03T07:15:16.415Z,10.55
2023-02-03T07:17:47.987Z,9.90
2023-02-03T07:20:24.933Z,11.50
2023-02-03T07:22:56.779Z,10.35
2023-02-03T07:25:33.497Z,11.25
2023-02-03T07:28:05.472Z,10.95
2023-02-03T07:30:32.127Z,11.23
2023-02-03T07:33:06.576Z,10.60
2023-02-03T07:38:22.024Z,11.00
2023-02-03T07:41:06.872Z,10.88
2023-02-03T07:43:36.305Z,11.68
2023-02-03T07:46:03.020Z,12.13
2023-02-03T07:48:38.469Z,10.80
2023-02-03T07:51:06.067Z,11.75
2023-02-03T07:53:33.318Z,12.18
2023-02-03T07:56:03.337Z,10.98
2023-02-03T07:58:33.152Z,11.75
2023-02-03T08:01:00.202Z,14.57
2023-02-03T08:03:29.746Z,31.55
2023-02-03T08:06:08.959Z,19.92
2023-02-03T08:08:36.181Z,14.85
2023-02-03T08:11:02.755Z,11.90
2023-02-03T08:13:33.180Z,11.70
2023-02-03T08:16:04.052Z,12.65
2023-02-03T08:18:32.638Z,12.15
2023-02-03T08:21:03.689Z,12.95
2023-02-03T08:23:30.916Z,12.40
2023-02-03T08:26:03.086Z,11.50
2023-02-03T08:28:35.498Z,11.25
2023-02-03T08:31:04.195Z,12.48
2023-02-03T08:33:31.444Z,13.68
2023-02-03T08:35:58.063Z,12.73
2023-02-03T08:38:27.602Z,13.50
2023-02-03T08:40:54.277Z,12.68
2023-02-03T08:43:20.911Z,12.90
2023-02-03T08:45:50.619Z,13.77
2023-02-03T08:48:17.297Z,12.35
2023-02-03T08:50:44.470Z,11.20
2023-02-03T08:53:11.421Z,10.88
2023-02-03T08:55:41.109Z,13.25
2023-02-03T08:58:07.688Z,11.95
2023-02-03T09:00:36.541Z,16.52
2023-02-03T09:03:03.169Z,13.05
2023-02-03T09:05:32.943Z,16.90
2023-02-03T09:07:59.752Z,17.20
2023-02-03T09:10:29.706Z,15.35
2023-02-03T09:12:57.183Z,15.43
2023-02-03T09:15:23.969Z,15.82
2023-02-03T09:17:50.569Z,17.05
2023-02-03T09:20:23.070Z,17.55
2023-02-03T09:22:49.788Z,17.95
2023-02-03T09:25:16.621Z,20.52
2023-02-03T09:27:46.573Z,21.85
2023-02-03T09:30:19.337Z,22.58
2023-02-03T09:32:46.009Z,20.42
2023-02-03T09:35:12.577Z,18.00
2023-02-03T09:37:39.181Z,17.17
2023-02-03T09:40:06.657Z,15.23
2023-02-03T09:43:02.255Z,14.50
2023-02-03T09:45:30.888Z,14.40
2023-02-03T09:48:05.019Z,17.60
2023-02-03T09:50:35.710Z,15.30
2023-02-03T09:53:12.615Z,14.43
2023-02-03T09:55:42.573Z,13.73
2023-02-03T09:58:20.722Z,13.63
2023-02-03T10:00:59.798Z,13.95
2023-02-03T10:03:36.828Z,14.73
2023-02-03T10:06:28.264Z,15.60
2023-02-03T10:09:00.755Z,12.85
2023-02-03T10:11:41.536Z,16.67
2023-02-03T10:14:24.205Z,15.35
2023-02-03T10:17:40.101Z,16.50
2023-02-03T10:20:10.094Z,16.90
2023-02-03T10:23:18.021Z,15.63
2023-02-03T10:25:57.339Z,17.13
2023-02-03T10:28:41.768Z,23.90
2023-02-03T10:31:32.658Z,23.27
2023-02-03T10:37:14.553Z,21.50
2023-02-03T10:39:58.640Z,27.88
2023-02-03T10:42:38.069Z,25.52
2023-02-03T10:45:05.429Z,23.73
2023-02-03T10:47:41.962Z,29.50
2023-02-03T10:50:18.834Z,23.20
2023-02-03T10:52:45.844Z,27.88
2023-02-03T10:55:21.556Z,29.38
2023-02-03T10:57:48.553Z,24.67
2023-02-03T11:00:19.579Z,28.92
2023-02-03T11:03:03.267Z,29.27
2023-02-03T11:05:33.390Z,29.58
2023-02-03T11:08:29.531Z,32.78
2023-02-03T11:11:31.039Z,27.88
2023-02-03T11:14:07.832Z,32.72
2023-02-03T11:16:41.696Z,25.60
2023-02-03T11:19:28.452Z,30.88
2023-02-03T11:22:03.284Z,34.72
2023-02-03T11:24:46.353Z,37.50
2023-02-03T11:27:18.558Z,36.30
2023-02-03T11:29:54.159Z,36.15
2023-02-03T11:32:33.648Z,31.52
2023-02-03T11:35:27.958Z,37.20
2023-02-03T11:37:57.187Z,37.45
2023-02-03T11:40:29.370Z,41.72
2023-02-03T11:42:56.131Z,35.05
2023-02-03T11:45:41.714Z,32.15
2023-02-03T11:48:13.319Z,39.45
2023-02-03T11:50:52.130Z,40.22
2023-02-03T11:53:30.147Z,41.20
2023-02-03T11:56:28.953Z,41.30
2023-02-03T11:59:31.546Z,42.15
2023-02-03T12:05:07.264Z,44.97
2023-02-03T12:07:46.901Z,44.95
2023-02-03T12:10:31.503Z,42.25
2023-02-03T12:13:26.673Z,46.15
2023-02-03T12:16:25.991Z,41.63
2023-02-03T12:19:20.394Z,49.22
2023-02-03T12:22:08.631Z,50.15
2023-02-03T12:25:08.990Z,51.88
2023-02-03T12:28:20.671Z,37.88
2023-02-03T12:31:21.240Z,50.22
2023-02-03T12:36:42.929Z,49.63
2023-02-03T12:39:47.077Z,51.55
2023-02-03T12:42:50.444Z,50.22
2023-02-03T12:45:38.158Z,50.85
2023-02-03T12:48:19.285Z,50.30
2023-02-03T12:51:02.481Z,48.60
2023-02-03T12:53:34.010Z,50.15
2023-02-03T12:56:08.703Z,50.10
2023-02-03T12:58:50.533Z,48.97
2023-02-03T13:02:03.321Z,43.22
2023-02-03T13:05:00.943Z,44.20
2023-02-03T13:08:03.858Z,44.40
2023-02-03T13:10:50.033Z,45.28
2023-02-03T13:13:41.777Z,39.10
2023-02-03T13:16:37.258Z,43.65
2023-02-03T13:19:17.581Z,41.22
2023-02-03T13:21:53.405Z,41.10
2023-02-03T13:24:30.217Z,37.75
2023-02-03T13:27:17.630Z,37.13
2023-02-03T13:30:04.946Z,38.80
2023-02-03T13:32:56.180Z,39.53
2023-02-03T13:35:34.365Z,37.65
2023-02-03T13:38:16.266Z,38.75
2023-02-03T13:41:17.658Z,37.10
2023-02-03T13:43:50.487Z,36.85
2023-02-03T13:46:32.300Z,36.25
2023-02-03T13:49:10.708Z,34.67
2023-02-03T13:51:46.974Z,34.15
2023-02-03T13:54:26.098Z,32.97
2023-02-03T13:57:20.431Z,35.10
2023-02-03T13:59:47.233Z,30.92
2023-02-03T14:02:19.839Z,29.70
2023-02-03T14:04:46.498Z,32.00
2023-02-03T14:07:39.003Z,32.50
2023-02-03T14:10:14.790Z,31.02
2023-02-03T14:12:53.683Z,32.00
2023-02-03T14:15:52.282Z,28.20
2023-02-03T14:18:54.944Z,28.63
2023-02-03T14:21:24.641Z,26.98
2023-02-03T14:24:02.457Z,25.60
2023-02-03T14:26:34.118Z,27.40
2023-02-03T14:29:02.096Z,26.20
2023-02-03T14:31:28.847Z,28.60
2023-02-03T14:34:17.595Z,28.45
2023-02-03T14:36:50.719Z,29.27
2023-02-03T14:39:24.570Z,30.80
2023-02-03T14:42:16.214Z,29.33
2023-02-03T14:45:20.628Z,32.58
2023-02-03T14:47:52.658Z,34.15
2023-02-03T14:52:58.909Z,34.80
2023-02-03T14:56:10.150Z,34.55
2023-02-03T14:59:04.911Z,36.30
2023-02-03T15:01:51.628Z,38.75
2023-02-03T15:04:28.709Z,37.55
2023-02-03T15:07:04.706Z,38.50
2023-02-03T15:09:47.451Z,38.65
2023-02-03T15:12:24.335Z,38.25
2023-02-03T15:14:51.011Z,41.40
2023-02-03T15:17:27.498Z,39.08
2023-02-03T15:19:54.627Z,40.53
2023-02-03T15:22:28.767Z,39.80
2023-02-03T15:25:03.771Z,37.00
2023-02-03T15:27:36.283Z,40.13
2023-02-03T15:30:40.180Z,47.45
2023-02-03T15:33:39.776Z,42.42
2023-02-03T15:36:15.314Z,43.15
2023-02-03T15:38:50.557Z,44.58
2023-02-03T15:41:25.436Z,46.78
2023-02-03T15:44:01.285Z,43.53
2023-02-03T15:46:42.097Z,47.17
2023-02-03T15:49:18.187Z,46.00
2023-02-03T15:52:03.113Z,44.67
2023-02-03T15:55:20.882Z,44.20
2023-02-03T15:57:52.850Z,43.08
2023-02-03T16:00:41.376Z,43.30
2023-02-03T16:03:40.308Z,42.45
2023-02-03T16:06:31.367Z,43.75
2023-02-03T16:08:58.878Z,43.53
2023-02-03T16:11:30.096Z,44.95
2023-02-03T16:13:58.002Z,45.93
2023-02-03T16:17:03.886Z,45.92
2023-02-03T16:19:36.714Z,46.83
2023-02-03T16:24:49.759Z,45.58
2023-02-03T16:27:25.561Z,46.45
2023-02-03T16:29:56.243Z,46.50
2023-02-03T16:32:23.208Z,46.17
2023-02-03T16:34:50.747Z,46.33
2023-02-03T16:37:42.553Z,48.28
2023-02-03T16:40:12.608Z,46.85
2023-02-03T16:42:45.430Z,50.00
2023-02-03T16:45:19.226Z,50.53
2023-02-03T16:47:47.221Z,50.70
2023-02-03T16:50:32.816Z,49.45
2023-02-03T16:53:04.667Z,50.40
2023-02-03T16:55:34.428Z,49.08
2023-02-03T16:58:04.572Z,54.75
2023-02-03T17:00:46.984Z,52.22
2023-02-03T17:03:28.236Z,51.60
2023-02-03T17:05:56.242Z,53.03
2023-02-03T17:08:25.269Z,52.60
2023-02-03T17:10:54.970Z,52.83
2023-02-03T17:13:23.183Z,55.33
2023-02-03T17:15:52.441Z,54.50
2023-02-03T17:18:24.889Z,53.97
2023-02-03T17:20:53.632Z,52.75
2023-02-03T17:23:27.350Z,54.10
2023-02-03T17:26:04.706Z,53.75
2023-02-03T17:28:31.519Z,53.25
2023-02-03T17:31:11.285Z,54.67
2023-02-03T17:33:40.952Z,54.35
2023-02-03T17:36:19.199Z,51.72
2023-02-03T17:55:14.771Z,51.97
2023-02-03T17:57:45.821Z,53.70
2023-02-03T18:00:13.135Z,54.35
2023-02-03T18:02:44.084Z,55.58
2023-02-03T18:05:13.729Z,52.70
2023-02-03T18:07:40.529Z,52.97
2023-02-03T18:10:30.627Z,53.42
2023-02-03T18:12:57.356Z,52.30
2023-02-03T18:15:23.984Z,53.75
2023-02-03T18:17:54.674Z,53.38
2023-02-03T18:20:21.488Z,53.25
2023-02-03T18:22:48.328Z,54.00
2023-02-03T18:25:21.234Z,52.58
2023-02-03T18:27:55.325Z,54.55
2023-02-03T18:30:22.006Z,51.42
2023-02-03T18:32:52.107Z,50.92
2023-02-03T18:35:21.764Z,51.88
2023-02-03T18:37:53.941Z,50.50
2023-02-03T18:40:23.653Z,47.60
2023-02-03T18:42:51.953Z,49.90
2023-02-03T18:45:18.677Z,49.22
2023-02-03T18:47:45.639Z,48.63
2023-02-03T18:50:12.276Z,50.97
2023-02-03T18:52:38.849Z,49.60
2023-02-03T18:55:19.877Z,52.80
2023-02-03T18:57:46.496Z,50.70
2023-02-03T19:00:32.245Z,47.35
2023-02-03T19:03:02.774Z,51.70
2023-02-03T19:05:29.517Z,50.67
2023-02-03T19:08:00.747Z,52.22
2023-02-03T19:10:28.143Z,52.75
2023-02-03T19:12:55.028Z,52.28
2023-02-03T19:15:23.925Z,50.42
2023-02-03T19:17:50.602Z,50.38
2023-02-03T19:20:20.419Z,49.10
2023-02-03T19:22:50.309Z,50.95
2023-02-03T19:25:29.542Z,48.78
2023-02-03T19:27:57.492Z,47.38
2023-02-03T19:30:27.577Z,43.60
2023-02-03T19:32:56.965Z,41.20
2023-02-03T19:35:25.028Z,39.75
2023-02-03T19:40:38.446Z,37.00
2023-02-03T19:43:05.187Z,37.20
2023-02-03T19:45:33.482Z,36.83
2023-02-03T19:48:00.408Z,36.63
2023-02-03T19:53:18.991Z,35.30
2023-02-03T19:55:46.590Z,36.17
2023-02-03T19:58:22.532Z,35.47
2023-02-03T20:00:56.989Z,34.65
2023-02-03T20:03:30.160Z,32.97
2023-02-03T20:05:57.581Z,32.85
2023-02-03T20:08:24.947Z,31.77
2023-02-03T20:10:54.783Z,29.08
2023-02-03T20:13:21.518Z,28.52
2023-02-03T20:15:48.243Z,26.60
2023-02-03T20:18:15.111Z,24.52
2023-02-03T20:20:42.016Z,21.48
2023-02-03T20:23:08.708Z,20.40
2023-02-03T20:25:42.820Z,14.77
2023-02-03T20:28:13.235Z,14.13
2023-02-03T20:30:46.522Z,14.05
2023-02-03T20:33:19.751Z,12.60
2023-02-03T20:35:54.868Z,11.95
2023-02-03T20:38:21.661Z,12.30
2023-02-03T20:41:00.177Z,11.63
2023-02-03T20:43:42.283Z,10.88
2023-02-03T20:46:21.999Z,12.20
2023-02-03T20:48:52.598Z,10.32
2023-02-03T20:51:19.852Z,8.45
2023-02-03T20:53:51.869Z,8.68
2023-02-03T20:58:47.942Z,7.05
2023-02-03T21:01:24.506Z,8.10
2023-02-03T21:03:53.417Z,8.57
2023-02-03T21:06:20.814Z,7.63
2023-02-03T21:08:52.950Z,6.80
2023-02-03T21:11:32.810Z,6.20
2023-02-03T21:14:02.469Z,7.13
2023-02-03T21:16:38.289Z,6.40
2023-02-03T21:19:05.415Z,5.57
2023-02-03T21:21:39.877Z,6.95
2023-02-03T21:24:38.741Z,6.13
2023-02-03T21:27:34.166Z,5.43
2023-02-03T21:30:03.810Z,6.00
2023-02-03T21:32:42.656Z,5.82
2023-02-03T21:35:42.754Z,5.43
2023-02-03T21:38:46.096Z,5.40
2023-02-03T21:41:20.806Z,5.40
2023-02-03T21:43:50.923Z,5.50
2023-02-03T21:46:26.706Z,5.90
2023-02-03T21:49:02.551Z,5.88
2023-02-03T21:51:40.631Z,6.30
2023-02-03T21:54:28.036Z,6.07
2023-02-03T21:56:54.797Z,6.63
2023-02-03T21:59:24.141Z,5.40
2023-02-03T22:01:51.754Z,6.47
2023-02-03T22:04:20.158Z,6.00
2023-02-03T22:06:53.264Z,6.13
2023-02-03T22:09:27.439Z,6.32
2023-02-03T22:11:55.989Z,6.47
2023-02-03T22:14:23.135Z,6.57
2023-02-03T22:17:00.936Z,5.68
2023-02-03T22:19:33.435Z,6.72
2023-02-03T22:22:10.534Z,6.43
2023-02-03T22:24:57.648Z,6.63
2023-02-03T22:27:24.260Z,7.07
2023-02-03T22:29:50.981Z,8.13
2023-02-03T22:32:17.581Z,8.02
2023-02-03T22:34:44.187Z,9.35
2023-02-03T22:37:10.786Z,9.07
2023-02-03T22:39:37.343Z,9.98
2023-02-03T22:42:04.265Z,9.88
2023-02-03T22:44:33.476Z,11.35
2023-02-03T22:47:02.359Z,11.20
2023-02-03T22:49:31.931Z,10.95
2023-02-03T22:51:58.507Z,10.98
2023-02-03T22:54:31.748Z,11.07
2023-02-03T22:57:00.843Z,11.40
2023-02-03T22:59:38.893Z,11.75
2023-02-03T23:02:07.520Z,12.30
2023-02-03T23:04:34.310Z,14.27
2023-02-03T23:07:03.220Z,14.32
2023-02-03T23:09:36.552Z,15.82
2023-02-03T23:12:11.209Z,15.30
2023-02-03T23:14:41.417Z,15.40
2023-02-03T23:17:08.043Z,15.55
2023-02-03T23:19:41.491Z,14.45
2023-02-03T23:22:18.604Z,15.20
2023-02-03T23:24:46.239Z,15.48
2023-02-03T23:27:17.098Z,16.83
2023-02-03T23:29:43.725Z,16.30
2023-02-03T23:32:10.349Z,17.13
2023-02-03T23:34:49.018Z,15.70
2023-02-03T23:37:21.130Z,16.02
2023-02-03T23:42:16.810Z,17.92
2023-02-03T23:44:46.129Z,17.60
2023-02-03T23:47:15.351Z,17.35
2023-02-03T23:49:41.992Z,17.63
2023-02-03T23:52:08.642Z,16.63
2023-02-03T23:54:37.874Z,17.17
2023-02-03T23:59:47.664Z,18.30
